Time;durP1;ratioP1;P1;durP2;ratioP2;P2;SDS_P1;SDS_P2;PMS_P1;PMS_P2;Temp;Humidity;BMP_temperature;BMP_pressure;BME280_temperature;BME280_humidity;BME280_pressure;Samples;Min_cycle;Max_cycle;Signal;HPM_P1;HPM_P2
2023/12/18 00:01:39;;;;;;;;;;;8.50;85.60;;;;;;5114280;23;20009;-83
2023/12/18 00:04:03;;;;;;;;;;;8.40;85.50;;;;;;5136743;23;19908;-85
2023/12/18 00:06:23;;;;;;;;;;;8.50;85.50;;;;;;5138098;23;19979;-82
2023/12/18 00:08:44;;;;;;;;;;;8.50;85.50;;;;;;5137379;23;19904;-83
2023/12/18 00:11:04;;;;;;;;;;;8.40;85.40;;;;;;5138053;23;19904;-84
2023/12/18 00:13:25;;;;;;;;;;;8.50;85.50;;;;;;5116102;23;19908;-83
2023/12/18 00:15:45;;;;;;;;;;;8.40;85.30;;;;;;5136689;23;19908;-84
2023/12/18 00:18:06;;;;;;;;;;;8.40;85.40;;;;;;5137291;23;20067;-82
2023/12/18 00:20:26;;;;;;;;;;;8.50;85.40;;;;;;5137563;23;19988;-85
2023/12/18 00:22:47;;;;;;;;;;;8.40;85.30;;;;;;5117066;23;19904;-85
2023/12/18 00:25:07;;;;;;;;;;;8.50;85.20;;;;;;5116672;23;19916;-85
2023/12/18 00:27:28;;;;;;;;;;;8.50;85.30;;;;;;5139157;23;19904;-83
2023/12/18 00:29:28;;;;;;;;;;;8.40;85.20;;;;;;5138714;23;19941;-82
2023/12/18 00:31:30;;;;;;;;;;;8.40;85.20;;;;;;5139107;23;19908;-84
2023/12/18 00:33:30;;;;;;;;;;;8.60;85.40;;;;;;5138122;23;19908;-83
2023/12/18 00:35:31;;;;;;;;;;;8.40;85.30;;;;;;5135575;23;19904;-84
2023/12/18 00:37:31;;;;;;;;;;;8.40;85.30;;;;;;5139279;23;20320;-83
2023/12/18 00:39:32;;;;;;;;;;;8.50;85.50;;;;;;5115939;23;19908;-85
2023/12/18 00:41:32;;;;;;;;;;;8.50;85.60;;;;;;5152039;23;19912;-83
2023/12/18 00:43:36;;;;;;;;;;;8.50;85.50;;;;;;5135553;23;19912;-88
2023/12/18 00:45:37;;;;;;;;;;;8.50;85.50;;;;;;5164680;23;19900;-88
2023/12/18 00:47:43;;;;;;;;;;;8.40;85.40;;;;;;5164827;23;19896;-85
2023/12/18 00:49:43;;;;;;;;;;;8.50;85.60;;;;;;5164695;23;19904;-88
2023/12/18 00:51:44;;;;;;;;;;;8.40;85.60;;;;;;5138794;23;19897;-85
2023/12/18 00:53:45;;;;;;;;;;;8.40;85.60;;;;;;5163458;23;19892;-89
2023/12/18 00:55:49;;;;;;;;;;;8.50;85.70;;;;;;5138240;23;19896;-87
2023/12/18 00:57:55;;;;;;;;;;;8.40;85.60;;;;;;5139824;23;19904;-87
2023/12/18 00:59:58;;;;;;;;;;;8.50;85.80;;;;;;5139765;23;19896;-85
2023/12/18 01:02:02;;;;;;;;;;;8.50;85.70;;;;;;5136950;23;19924;-87
2023/12/18 01:04:06;;;;;;;;;;;8.40;85.80;;;;;;5160955;23;19903;-89
2023/12/18 01:06:06;;;;;;;;;;;8.40;85.70;;;;;;5159779;23;19968;-88
2023/12/18 01:08:08;;;;;;;;;;;8.50;85.80;;;;;;5117385;23;19967;-84
2023/12/18 01:10:11;;;;;;;;;;;8.40;85.90;;;;;;5114582;23;19911;-86
2023/12/18 01:12:22;;;;;;;;;;;8.50;86.00;;;;;;5141799;23;19961;-84
2023/12/18 01:14:24;;;;;;;;;;;8.50;86.00;;;;;;5114538;23;19976;-88
2023/12/18 01:16:45;;;;;;;;;;;8.40;86.20;;;;;;5140703;23;19904;-85
2023/12/18 01:19:05;;;;;;;;;;;8.40;86.10;;;;;;5119470;23;19932;-87
2023/12/18 01:21:26;;;;;;;;;;;8.50;86.10;;;;;;5117188;23;19920;-84
2023/12/18 01:23:26;;;;;;;;;;;8.50;86.10;;;;;;5138803;23;19908;-85
2023/12/18 01:25:52;;;;;;;;;;;8.40;86.00;;;;;;5117749;23;19955;-89
2023/12/18 01:28:13;;;;;;;;;;;8.40;86.20;;;;;;5140163;23;19908;-86
2023/12/18 01:30:14;;;;;;;;;;;8.40;86.10;;;;;;5137802;23;19943;-86
2023/12/18 01:32:34;;;;;;;;;;;8.50;86.30;;;;;;5135159;23;19951;-86
2023/12/18 01:34:55;;;;;;;;;;;8.40;86.20;;;;;;5117502;23;19905;-84
2023/12/18 01:37:18;;;;;;;;;;;8.50;86.30;;;;;;5113881;23;19956;-87
2023/12/18 01:39:18;;;;;;;;;;;8.40;86.40;;;;;;5113188;23;19951;-86
2023/12/18 01:41:25;;;;;;;;;;;8.50;86.30;;;;;;5136857;23;19912;-85
2023/12/18 01:43:46;;;;;;;;;;;8.50;86.50;;;;;;5141634;23;19904;-86
2023/12/18 01:45:48;;;;;;;;;;;8.50;86.50;;;;;;5086721;23;19904;-87
2023/12/18 01:48:09;;;;;;;;;;;8.50;86.50;;;;;;5140213;23;19915;-85
2023/12/18 01:50:17;;;;;;;;;;;8.60;86.60;;;;;;5141060;23;19908;-85
2023/12/18 01:52:18;;;;;;;;;;;8.50;86.60;;;;;;5111827;23;19943;-86
2023/12/18 01:54:21;;;;;;;;;;;8.50;86.60;;;;;;5113759;23;19986;-85
2023/12/18 01:56:23;;;;;;;;;;;8.50;86.50;;;;;;5132377;23;19990;-86
2023/12/18 01:58:24;;;;;;;;;;;8.50;86.50;;;;;;5133985;23;19908;-86
2023/12/18 02:00:25;;;;;;;;;;;8.50;86.40;;;;;;5111304;23;19936;-84
2023/12/18 02:02:26;;;;;;;;;;;8.60;86.50;;;;;;5138504;23;19978;-86
2023/12/18 02:04:32;;;;;;;;;;;8.50;86.50;;;;;;5137649;23;19931;-85
2023/12/18 02:06:32;;;;;;;;;;;8.50;86.50;;;;;;5139734;23;20251;-86
2023/12/18 02:08:34;;;;;;;;;;;8.60;86.60;;;;;;5114800;23;19924;-85
2023/12/18 02:10:34;;;;;;;;;;;8.60;86.40;;;;;;5141630;23;19908;-85
2023/12/18 02:12:35;;;;;;;;;;;8.60;86.50;;;;;;5115885;23;19915;-85
2023/12/18 02:14:37;;;;;;;;;;;8.60;86.60;;;;;;5115192;23;19915;-85
2023/12/18 02:16:42;;;;;;;;;;;8.60;86.60;;;;;;5140454;23;19908;-85
2023/12/18 02:18:49;;;;;;;;;;;8.70;86.60;;;;;;5090399;23;20004;-85
2023/12/18 02:20:53;;;;;;;;;;;8.70;86.60;;;;;;5115798;23;19940;-86
2023/12/18 02:22:53;;;;;;;;;;;8.60;86.60;;;;;;5141909;23;19915;-86
2023/12/18 02:24:54;;;;;;;;;;;8.60;86.40;;;;;;5113265;23;19986;-86
2023/12/18 02:26:58;;;;;;;;;;;8.60;86.60;;;;;;5137118;23;19983;-84
2023/12/18 02:28:59;;;;;;;;;;;8.50;86.40;;;;;;5139277;23;19938;-86
2023/12/18 02:31:00;;;;;;;;;;;8.60;86.60;;;;;;5112417;23;19905;-85
2023/12/18 02:33:10;;;;;;;;;;;8.60;86.70;;;;;;5137397;23;19927;-85
2023/12/18 02:35:20;;;;;;;;;;;8.60;86.70;;;;;;5139503;23;19908;-85
2023/12/18 02:37:24;;;;;;;;;;;8.60;86.50;;;;;;5113410;23;19905;-86
2023/12/18 02:39:25;;;;;;;;;;;8.70;86.70;;;;;;5138491;23;19992;-86
2023/12/18 02:41:31;;;;;;;;;;;8.60;86.60;;;;;;5140275;23;19919;-85
2023/12/18 02:43:36;;;;;;;;;;;8.60;86.60;;;;;;5088405;23;20420;-86
2023/12/18 02:45:40;;;;;;;;;;;8.60;86.60;;;;;;5134507;23;19911;-86
2023/12/18 02:47:50;;;;;;;;;;;8.60;86.60;;;;;;5135445;23;20310;-86
2023/12/18 02:49:51;;;;;;;;;;;8.70;86.60;;;;;;5108891;23;19916;-85
2023/12/18 02:52:12;;;;;;;;;;;8.70;86.60;;;;;;5138515;23;19915;-86
2023/12/18 02:54:32;;;;;;;;;;;8.60;86.60;;;;;;5136218;23;19907;-85
2023/12/18 02:56:53;;;;;;;;;;;8.70;86.60;;;;;;5137017;23;20014;-87
2023/12/18 02:59:13;;;;;;;;;;;8.70;86.50;;;;;;5116237;23;19931;-86
2023/12/18 03:01:35;;;;;;;;;;;8.70;86.40;;;;;;5132784;23;20347;-86
2023/12/18 03:03:59;;;;;;;;;;;8.70;86.50;;;;;;5113568;23;19908;-85
2023/12/18 03:06:19;;;;;;;;;;;8.70;86.30;;;;;;5136298;23;19916;-85
2023/12/18 03:08:41;;;;;;;;;;;8.60;86.30;;;;;;5136400;23;19907;-87
2023/12/18 03:11:02;;;;;;;;;;;8.70;86.40;;;;;;5134542;23;19908;-85
2023/12/18 03:13:23;;;;;;;;;;;8.70;86.50;;;;;;5137067;23;19912;-86
2023/12/18 03:15:43;;;;;;;;;;;8.70;86.50;;;;;;5137472;23;19904;-86
2023/12/18 03:18:04;;;;;;;;;;;8.70;86.50;;;;;;5136211;23;19908;-87
2023/12/18 03:20:27;;;;;;;;;;;8.60;86.70;;;;;;5137794;23;19974;-86
2023/12/18 03:22:48;;;;;;;;;;;8.70;86.70;;;;;;5135666;23;19987;-85
2023/12/18 03:25:07;;;;;;;;;;;8.70;86.80;;;;;;5135486;23;19908;-87
2023/12/18 03:27:08;;;;;;;;;;;8.60;86.70;;;;;;5110690;23;19908;-87
2023/12/18 03:29:15;;;;;;;;;;;8.80;86.70;;;;;;5085201;23;19909;-86
2023/12/18 03:31:15;;;;;;;;;;;8.60;86.40;;;;;;5137875;23;19965;-86
2023/12/18 03:33:16;;;;;;;;;;;8.70;86.80;;;;;;5112445;23;19908;-85
2023/12/18 03:35:17;;;;;;;;;;;8.70;86.80;;;;;;5138751;23;19934;-85
2023/12/18 03:37:20;;;;;;;;;;;8.70;86.90;;;;;;5135269;23;19908;-84
2023/12/18 03:39:21;;;;;;;;;;;8.70;86.80;;;;;;5137901;23;19915;-86
2023/12/18 03:41:21;;;;;;;;;;;8.70;87.00;;;;;;5136933;23;19908;-85
2023/12/18 03:43:25;;;;;;;;;;;8.60;86.80;;;;;;5109977;23;20414;-86
2023/12/18 03:45:25;;;;;;;;;;;8.70;86.90;;;;;;5138735;23;19907;-87
2023/12/18 03:47:27;;;;;;;;;;;8.70;86.90;;;;;;5111890;23;19999;-88
2023/12/18 03:49:30;;;;;;;;;;;8.70;87.00;;;;;;5134607;23;19916;-85
2023/12/18 03:51:36;;;;;;;;;;;8.60;86.90;;;;;;5136047;23;19991;-86
2023/12/18 03:53:37;;;;;;;;;;;8.70;87.00;;;;;;5088041;23;19911;-85
2023/12/18 03:55:41;;;;;;;;;;;8.70;87.10;;;;;;5136226;23;19907;-85
2023/12/18 03:57:41;;;;;;;;;;;8.80;87.10;;;;;;5134760;23;19943;-85
2023/12/18 03:59:42;;;;;;;;;;;8.80;87.10;;;;;;5135933;23;20247;-86
2023/12/18 04:01:42;;;;;;;;;;;8.70;87.00;;;;;;5136432;23;19916;-85
2023/12/18 04:03:43;;;;;;;;;;;8.80;87.00;;;;;;5138346;23;19904;-87
2023/12/18 04:05:43;;;;;;;;;;;8.80;87.10;;;;;;5135172;23;19908;-86
2023/12/18 04:07:44;;;;;;;;;;;8.80;86.90;;;;;;5137169;23;19908;-85
2023/12/18 04:09:48;;;;;;;;;;;8.70;86.90;;;;;;5138910;23;19907;-84
2023/12/18 04:11:49;;;;;;;;;;;8.70;87.70;;;;;;5110782;23;19908;-85
2023/12/18 04:13:50;;;;;;;;;;;8.80;87.00;;;;;;5111653;23;20087;-85
2023/12/18 04:15:51;;;;;;;;;;;8.80;87.10;;;;;;5135086;23;19904;-86
2023/12/18 04:17:52;;;;;;;;;;;8.70;87.00;;;;;;5138308;23;19915;-86
2023/12/18 04:19:53;;;;;;;;;;;8.80;87.00;;;;;;5086924;23;19920;-86
2023/12/18 04:21:53;;;;;;;;;;;8.80;87.00;;;;;;5136555;23;19907;-85
2023/12/18 04:23:54;;;;;;;;;;;8.80;87.00;;;;;;5133460;23;20360;-87
2023/12/18 04:25:57;;;;;;;;;;;8.70;86.80;;;;;;5132816;23;20090;-85
2023/12/18 04:28:04;;;;;;;;;;;8.80;87.00;;;;;;5134559;22;19923;-84
2023/12/18 04:30:05;;;;;;;;;;;8.80;87.00;;;;;;5135736;23;19904;-87
2023/12/18 04:32:06;;;;;;;;;;;8.70;87.00;;;;;;5110423;23;19912;-86
2023/12/18 04:34:07;;;;;;;;;;;8.70;87.00;;;;;;5136171;23;19907;-88
2023/12/18 04:36:07;;;;;;;;;;;8.80;87.80;;;;;;5086720;23;19904;-85
2023/12/18 04:38:14;;;;;;;;;;;8.80;87.00;;;;;;5111251;23;19908;-88
2023/12/18 04:40:14;;;;;;;;;;;8.80;87.00;;;;;;5111565;23;19916;-86
2023/12/18 04:42:38;;;;;;;;;;;8.80;86.90;;;;;;5133661;23;19908;-86
2023/12/18 04:44:58;;;;;;;;;;;8.80;87.10;;;;;;5132673;23;19965;-86
2023/12/18 04:47:19;;;;;;;;;;;8.80;87.90;;;;;;5113337;23;19908;-84
2023/12/18 04:49:39;;;;;;;;;;;8.70;87.10;;;;;;5133482;23;19911;-85
2023/12/18 04:52:03;;;;;;;;;;;8.80;87.00;;;;;;5113107;23;19916;-86
2023/12/18 04:54:23;;;;;;;;;;;8.80;87.10;;;;;;5116923;23;19939;-85
2023/12/18 04:56:44;;;;;;;;;;;8.80;87.00;;;;;;5135414;23;19935;-86
2023/12/18 04:59:05;;;;;;;;;;;8.80;87.00;;;;;;5114302;23;19908;-85
2023/12/18 05:01:25;;;;;;;;;;;8.80;87.00;;;;;;5134456;23;19991;-86
2023/12/18 05:03:46;;;;;;;;;;;8.80;86.80;;;;;;5118104;23;19958;-85
2023/12/18 05:06:35;;;;;;;;;;;8.80;86.90;;;;;;5136326;23;19915;-84
2023/12/18 05:08:55;;;;;;;;;;;8.80;86.90;;;;;;5134414;23;19983;-85
2023/12/18 05:11:17;;;;;;;;;;;8.90;87.10;;;;;;5136040;23;19908;-87
2023/12/18 05:13:43;;;;;;;;;;;8.80;87.00;;;;;;5130459;23;19904;-86
2023/12/18 05:16:05;;;;;;;;;;;8.80;87.20;;;;;;5135141;23;20328;-85
2023/12/18 05:18:28;;;;;;;;;;;8.80;87.00;;;;;;5137414;23;19974;-86
2023/12/18 05:20:53;;;;;;;;;;;8.70;87.00;;;;;;5134785;23;19928;-87
2023/12/18 05:23:16;;;;;;;;;;;8.80;87.00;;;;;;5138164;23;19903;-84
2023/12/18 05:25:42;;;;;;;;;;;8.90;87.20;;;;;;5135052;23;19912;-84
2023/12/18 05:28:03;;;;;;;;;;;8.80;87.00;;;;;;5139118;23;19912;-85
2023/12/18 05:30:31;;;;;;;;;;;8.80;87.10;;;;;;5139425;23;19935;-86
2023/12/18 05:32:51;;;;;;;;;;;8.80;87.30;;;;;;5137367;23;19957;-85
2023/12/18 05:34:52;;;;;;;;;;;8.90;87.20;;;;;;5113618;23;19905;-86
2023/12/18 05:36:54;;;;;;;;;;;8.90;87.10;;;;;;5113547;23;19908;-86
2023/12/18 05:38:55;;;;;;;;;;;8.90;87.20;;;;;;5137764;23;19908;-86
2023/12/18 05:40:55;;;;;;;;;;;8.80;87.10;;;;;;5088454;23;19919;-85
2023/12/18 05:42:56;;;;;;;;;;;8.90;87.10;;;;;;5112086;23;19967;-85
2023/12/18 05:44:57;;;;;;;;;;;9.00;87.20;;;;;;5137591;23;19934;-87
2023/12/18 05:46:57;;;;;;;;;;;8.90;87.20;;;;;;5111789;23;19939;-83
2023/12/18 05:49:00;;;;;;;;;;;8.90;87.20;;;;;;5137782;23;20011;-86
2023/12/18 05:51:01;;;;;;;;;;;8.90;87.20;;;;;;5136360;23;19987;-87
2023/12/18 05:53:08;;;;;;;;;;;8.90;87.20;;;;;;5137141;23;19938;-87
2023/12/18 05:55:09;;;;;;;;;;;8.90;87.20;;;;;;5136395;23;19908;-86
2023/12/18 05:57:17;;;;;;;;;;;9.00;87.20;;;;;;5111138;23;20272;-84
2023/12/18 05:59:18;;;;;;;;;;;8.90;87.20;;;;;;5111791;23;19994;-86
2023/12/18 06:01:19;;;;;;;;;;;8.90;87.10;;;;;;5086519;23;20285;-85
2023/12/18 06:03:22;;;;;;;;;;;9.00;87.30;;;;;;5111636;23;19905;-87
2023/12/18 06:05:23;;;;;;;;;;;8.90;87.20;;;;;;5087980;23;20365;-84
2023/12/18 06:07:27;;;;;;;;;;;8.90;87.40;;;;;;5137684;23;19904;-84
2023/12/18 06:09:27;;;;;;;;;;;8.90;87.30;;;;;;5137712;23;19958;-85
2023/12/18 06:11:35;;;;;;;;;;;8.90;87.30;;;;;;5138643;23;19907;-86
2023/12/18 06:13:38;;;;;;;;;;;8.90;87.20;;;;;;5112551;23;19997;-86
2023/12/18 06:15:39;;;;;;;;;;;9.00;87.30;;;;;;5137338;23;19982;-86
2023/12/18 06:17:40;;;;;;;;;;;8.90;87.20;;;;;;5087477;23;20341;-86
2023/12/18 06:19:41;;;;;;;;;;;8.90;87.20;;;;;;5140522;23;19904;-87
2023/12/18 06:21:43;;;;;;;;;;;8.90;87.20;;;;;;5110003;23;19915;-86
2023/12/18 06:23:49;;;;;;;;;;;8.90;87.20;;;;;;5112458;23;19995;-86
2023/12/18 06:25:53;;;;;;;;;;;8.90;87.20;;;;;;5087936;23;19953;-85
2023/12/18 06:28:02;;;;;;;;;;;8.90;87.80;;;;;;5140311;23;19908;-86
2023/12/18 06:30:03;;;;;;;;;;;8.90;87.10;;;;;;5112039;23;19908;-85
2023/12/18 06:32:31;;;;;;;;;;;8.90;87.00;;;;;;5138915;23;19938;-86
2023/12/18 06:34:52;;;;;;;;;;;8.90;87.10;;;;;;5118053;23;20016;-86
2023/12/18 06:36:52;;;;;;;;;;;9.00;87.20;;;;;;5139810;23;19908;-85
2023/12/18 06:39:13;;;;;;;;;;;8.90;87.10;;;;;;5138775;23;19908;-86
2023/12/18 06:41:34;;;;;;;;;;;8.90;87.00;;;;;;5140072;23;19939;-87
2023/12/18 06:43:54;;;;;;;;;;;8.90;87.00;;;;;;5138566;23;19908;-87
2023/12/18 06:46:15;;;;;;;;;;;8.90;87.00;;;;;;5139775;23;19911;-86
2023/12/18 06:48:42;;;;;;;;;;;8.90;87.10;;;;;;5140746;23;19908;-87
2023/12/18 06:51:02;;;;;;;;;;;9.00;87.10;;;;;;5140581;23;19904;-87
2023/12/18 06:53:28;;;;;;;;;;;8.90;87.00;;;;;;5141295;23;19915;-86
2023/12/18 06:55:51;;;;;;;;;;;8.90;87.00;;;;;;5117790;23;19983;-86
2023/12/18 06:58:17;;;;;;;;;;;8.90;86.90;;;;;;5138105;23;19908;-86
2023/12/18 07:00:38;;;;;;;;;;;8.90;87.00;;;;;;5139194;23;19990;-85
2023/12/18 07:02:59;;;;;;;;;;;8.90;87.70;;;;;;5140135;23;19919;-85
2023/12/18 07:05:21;;;;;;;;;;;8.90;87.00;;;;;;5140140;23;20082;-86
2023/12/18 07:07:42;;;;;;;;;;;8.90;87.00;;;;;;5117222;23;19955;-84
2023/12/18 07:09:42;;;;;;;;;;;8.90;87.00;;;;;;5114923;23;19908;-84
2023/12/18 07:11:43;;;;;;;;;;;8.90;87.10;;;;;;5114074;23;20321;-84
2023/12/18 07:13:43;;;;;;;;;;;8.90;87.00;;;;;;5113897;23;19908;-85
2023/12/18 07:15:44;;;;;;;;;;;8.80;86.90;;;;;;5139797;23;19904;-85
2023/12/18 07:17:45;;;;;;;;;;;8.80;87.10;;;;;;5141216;23;19958;-86
2023/12/18 07:19:45;;;;;;;;;;;8.90;87.20;;;;;;5114735;23;19939;-86
2023/12/18 07:21:46;;;;;;;;;;;8.80;87.20;;;;;;5141768;23;19916;-87
2023/12/18 07:23:47;;;;;;;;;;;8.90;87.20;;;;;;5114818;23;19911;-87
2023/12/18 07:26:13;;;;;;;;;;;8.80;87.30;;;;;;5138432;23;20391;-86
2023/12/18 07:28:23;;;;;;;;;;;8.80;87.20;;;;;;5082020;23;19960;-87
2023/12/18 07:30:29;;;;;;;;;;;8.80;87.10;;;;;;5089158;23;19983;-86
2023/12/18 07:32:50;;;;;;;;;;;8.80;87.10;;;;;;5114097;23;19904;-88
2023/12/18 07:35:13;;;;;;;;;;;8.80;87.10;;;;;;5138363;23;19979;-87
2023/12/18 07:37:34;;;;;;;;;;;8.80;87.30;;;;;;5117633;23;19909;-86
2023/12/18 07:39:55;;;;;;;;;;;8.80;87.30;;;;;;5140407;23;19975;-86
2023/12/18 07:42:15;;;;;;;;;;;8.90;87.40;;;;;;5140202;23;20126;-86
2023/12/18 07:44:36;;;;;;;;;;;8.90;87.30;;;;;;5141458;23;19904;-88
2023/12/18 07:46:56;;;;;;;;;;;8.80;87.30;;;;;;5139695;23;19904;-86
2023/12/18 07:49:23;;;;;;;;;;;8.80;87.30;;;;;;5140714;23;19974;-87
2023/12/18 07:51:43;;;;;;;;;;;8.80;87.40;;;;;;5119468;23;19911;-86
2023/12/18 07:53:50;;;;;;;;;;;8.80;87.40;;;;;;5090914;23;19905;-87
2023/12/18 07:56:18;;;;;;;;;;;8.90;87.50;;;;;;5093759;23;20431;-89
2023/12/18 07:58:29;;;;;;;;;;;8.90;87.50;;;;;;5139222;23;20003;-86
2023/12/18 08:00:50;;;;;;;;;;;8.80;87.40;;;;;;5128292;23;19908;-87
2023/12/18 08:03:10;;;;;;;;;;;8.80;87.60;;;;;;5117212;23;19911;-86
2023/12/18 08:05:31;;;;;;;;;;;8.90;87.70;;;;;;5137360;23;19908;-86
2023/12/18 08:07:57;;;;;;;;;;;8.70;87.50;;;;;;5117167;23;19952;-86
2023/12/18 08:10:17;;;;;;;;;;;8.90;87.70;;;;;;5137212;23;19900;-86
2023/12/18 08:12:38;;;;;;;;;;;8.80;87.70;;;;;;5139893;23;19914;-86
2023/12/18 08:15:02;;;;;;;;;;;8.80;87.60;;;;;;5115663;23;19904;-86
2023/12/18 08:17:12;;;;;;;;;;;8.80;87.60;;;;;;5089748;23;19905;-86
2023/12/18 08:19:15;;;;;;;;;;;8.80;87.60;;;;;;5114031;23;19908;-86
2023/12/18 08:21:16;;;;;;;;;;;8.80;87.60;;;;;;5088570;23;20196;-86
2023/12/18 08:23:17;;;;;;;;;;;8.80;87.70;;;;;;5113012;23;19908;-87
2023/12/18 08:25:17;;;;;;;;;;;8.80;87.70;;;;;;5148228;23;19907;-86
2023/12/18 08:27:18;;;;;;;;;;;8.80;87.80;;;;;;5139519;23;19904;-86
2023/12/18 08:29:19;;;;;;;;;;;8.80;87.60;;;;;;5088034;23;19916;-88
2023/12/18 08:31:24;;;;;;;;;;;8.80;87.80;;;;;;5112875;23;20399;-86
2023/12/18 08:33:45;;;;;;;;;;;8.80;87.90;;;;;;5117307;23;19906;-86
2023/12/18 08:36:06;;;;;;;;;;;8.80;87.70;;;;;;5116984;23;19904;-87
2023/12/18 08:38:30;;;;;;;;;;;8.80;87.80;;;;;;5136707;23;19906;-86
2023/12/18 08:40:50;;;;;;;;;;;8.80;87.70;;;;;;5139136;23;19942;-86
2023/12/18 08:43:11;;;;;;;;;;;8.80;87.80;;;;;;5117049;23;19908;-86
2023/12/18 08:45:32;;;;;;;;;;;8.80;87.70;;;;;;5129090;23;19908;-86
2023/12/18 08:47:54;;;;;;;;;;;8.80;87.70;;;;;;5117013;23;19930;-87
2023/12/18 08:50:18;;;;;;;;;;;8.80;87.70;;;;;;5117384;23;20014;-86
2023/12/18 08:52:44;;;;;;;;;;;8.90;87.70;;;;;;5138227;23;19935;-86
2023/12/18 08:55:05;;;;;;;;;;;8.80;87.60;;;;;;5113076;23;19912;-86
2023/12/18 08:57:13;;;;;;;;;;;8.80;87.60;;;;;;5088088;23;20157;-88
2023/12/18 08:59:17;;;;;;;;;;;8.90;87.70;;;;;;5112146;23;19943;-86
2023/12/18 09:01:20;;;;;;;;;;;8.80;87.60;;;;;;5088517;23;19908;-86
2023/12/18 09:03:21;;;;;;;;;;;8.80;87.70;;;;;;5112519;23;19979;-86
2023/12/18 09:05:23;;;;;;;;;;;8.80;87.70;;;;;;5111763;23;19908;-86
2023/12/18 09:07:28;;;;;;;;;;;8.80;87.60;;;;;;5114503;23;19936;-86
2023/12/18 09:09:49;;;;;;;;;;;8.80;87.70;;;;;;5117899;23;19905;-87
2023/12/18 09:11:49;;;;;;;;;;;8.90;87.70;;;;;;5114462;23;19907;-87
2023/12/18 09:13:51;;;;;;;;;;;8.90;87.70;;;;;;5137751;23;20408;-86
2023/12/18 09:16:12;;;;;;;;;;;8.80;87.80;;;;;;5118027;23;19979;-85
2023/12/18 09:18:38;;;;;;;;;;;8.90;87.90;;;;;;5140068;23;19919;-86
2023/12/18 09:20:59;;;;;;;;;;;8.80;87.70;;;;;;5140446;23;19916;-86
2023/12/18 09:23:19;;;;;;;;;;;8.80;87.80;;;;;;5141329;23;19943;-86
2023/12/18 09:25:40;;;;;;;;;;;8.80;87.80;;;;;;5138549;23;19923;-85
2023/12/18 09:28:04;;;;;;;;;;;8.90;87.90;;;;;;5140020;23;19919;-85
2023/12/18 09:30:24;;;;;;;;;;;8.70;87.70;;;;;;5139924;23;19915;-86
2023/12/18 09:32:45;;;;;;;;;;;8.90;87.90;;;;;;5117465;23;19904;-86
2023/12/18 09:35:06;;;;;;;;;;;8.80;87.90;;;;;;5116969;23;19908;-86
2023/12/18 09:37:27;;;;;;;;;;;8.80;88.00;;;;;;5137090;23;19971;-86
2023/12/18 09:39:28;;;;;;;;;;;8.80;87.80;;;;;;5113233;23;19932;-87
2023/12/18 09:41:29;;;;;;;;;;;8.70;87.80;;;;;;5137736;23;20347;-87
2023/12/18 09:43:29;;;;;;;;;;;8.80;88.00;;;;;;5141709;23;19923;-86
2023/12/18 09:45:33;;;;;;;;;;;8.80;88.00;;;;;;5113685;23;19904;-88
2023/12/18 09:47:34;;;;;;;;;;;8.80;88.00;;;;;;5137591;23;19904;-86
2023/12/18 09:49:35;;;;;;;;;;;8.80;88.00;;;;;;5137779;23;19959;-86
2023/12/18 09:51:36;;;;;;;;;;;8.80;88.00;;;;;;5113150;23;20375;-88
2023/12/18 09:53:37;;;;;;;;;;;8.80;88.00;;;;;;5139370;23;19918;-84
2023/12/18 09:55:38;;;;;;;;;;;8.70;88.00;;;;;;5112956;23;19912;-86
2023/12/18 09:57:51;;;;;;;;;;;8.80;88.10;;;;;;5138651;23;20506;-86
2023/12/18 09:59:54;;;;;;;;;;;8.80;88.10;;;;;;5087849;23;19909;-87
2023/12/18 10:02:16;;;;;;;;;;;8.80;88.10;;;;;;5117873;23;19912;-86
2023/12/18 10:04:41;;;;;;;;;;;8.80;88.00;;;;;;5118555;23;19911;-87
2023/12/18 10:07:02;;;;;;;;;;;8.70;88.10;;;;;;5138873;23;19928;-86
2023/12/18 10:09:23;;;;;;;;;;;8.70;88.20;;;;;;5135225;23;19908;-87
2023/12/18 10:11:47;;;;;;;;;;;8.80;88.20;;;;;;5140528;23;19904;-85
2023/12/18 10:14:07;;;;;;;;;;;8.80;88.20;;;;;;5141265;23;19911;-86
2023/12/18 10:16:28;;;;;;;;;;;8.80;88.30;;;;;;5140312;23;19904;-87
2023/12/18 10:18:49;;;;;;;;;;;8.80;88.20;;;;;;5139531;23;20074;-87
2023/12/18 10:21:11;;;;;;;;;;;8.80;88.30;;;;;;5117729;23;19912;-87
2023/12/18 10:23:35;;;;;;;;;;;8.80;88.10;;;;;;5118360;23;19907;-86
2023/12/18 10:25:36;;;;;;;;;;;8.80;88.20;;;;;;5140053;23;19994;-86
2023/12/18 10:27:38;;;;;;;;;;;8.80;88.20;;;;;;5139976;23;19904;-86
2023/12/18 10:29:39;;;;;;;;;;;8.80;88.20;;;;;;5112900;23;19983;-88
2023/12/18 10:31:40;;;;;;;;;;;8.90;88.30;;;;;;5138512;23;19900;-86
2023/12/18 10:33:41;;;;;;;;;;;8.80;88.30;;;;;;5138988;23;19908;-86
2023/12/18 10:35:42;;;;;;;;;;;8.80;88.20;;;;;;5112478;23;20344;-86
2023/12/18 10:37:46;;;;;;;;;;;8.80;88.30;;;;;;5139613;23;19942;-86
2023/12/18 10:39:49;;;;;;;;;;;8.80;88.30;;;;;;5087821;23;19908;-87
2023/12/18 10:41:53;;;;;;;;;;;8.80;88.40;;;;;;5112572;23;20167;-86
2023/12/18 10:43:55;;;;;;;;;;;8.90;88.30;;;;;;5138353;23;19900;-87
2023/12/18 10:46:21;;;;;;;;;;;8.80;88.30;;;;;;5117130;23;19908;-87
2023/12/18 10:48:42;;;;;;;;;;;8.80;88.30;;;;;;5116992;23;19931;-87
2023/12/18 10:50:54;;;;;;;;;;;8.90;88.50;;;;;;5113213;23;20381;-86
2023/12/18 10:53:19;;;;;;;;;;;8.80;88.50;;;;;;5139918;23;19911;-86
2023/12/18 10:55:43;;;;;;;;;;;8.90;88.40;;;;;;5140044;23;19915;-87
2023/12/18 10:58:04;;;;;;;;;;;8.90;88.50;;;;;;5116441;23;19908;-86
2023/12/18 11:00:25;;;;;;;;;;;9.00;88.50;;;;;;5134588;23;19922;-87
2023/12/18 11:02:49;;;;;;;;;;;8.90;88.40;;;;;;5139753;23;19912;-86
2023/12/18 11:05:06;;;;;;;;;;;8.90;88.30;;;;;;5118085;23;19936;-86
2023/12/18 11:07:27;;;;;;;;;;;8.90;88.50;;;;;;5138750;23;19904;-87
2023/12/18 11:09:49;;;;;;;;;;;9.00;88.50;;;;;;5115654;23;19901;-86
2023/12/18 11:12:11;;;;;;;;;;;8.90;88.30;;;;;;5138654;23;19975;-87
2023/12/18 11:14:50;;;;;;;;;;;8.90;88.40;;;;;;5117033;23;19915;-87
2023/12/18 11:17:20;;;;;;;;;;;8.90;88.40;;;;;;5115849;23;19984;-87
2023/12/18 11:19:46;;;;;;;;;;;8.90;88.30;;;;;;5117512;23;19987;-86
2023/12/18 11:22:07;;;;;;;;;;;8.90;88.50;;;;;;5139566;23;19908;-88
2023/12/18 11:24:34;;;;;;;;;;;8.90;88.40;;;;;;5117527;23;19983;-87
2023/12/18 11:26:55;;;;;;;;;;;8.90;88.40;;;;;;5138155;23;20632;-86
2023/12/18 11:29:32;;;;;;;;;;;8.90;88.30;;;;;;5139036;23;19994;-86
2023/12/18 11:31:53;;;;;;;;;;;8.90;88.30;;;;;;5117296;23;19908;-85
2023/12/18 11:34:14;;;;;;;;;;;8.90;88.30;;;;;;5137938;23;19935;-88
2023/12/18 11:36:34;;;;;;;;;;;9.00;88.40;;;;;;5117256;23;19987;-86
2023/12/18 11:38:55;;;;;;;;;;;9.00;88.50;;;;;;5139552;23;19966;-86
2023/12/18 11:41:36;;;;;;;;;;;9.00;88.50;;;;;;5116702;23;19916;-86
2023/12/18 11:43:37;;;;;;;;;;;9.00;88.40;;;;;;5086582;23;19900;-86
2023/12/18 11:45:39;;;;;;;;;;;9.00;88.30;;;;;;5111892;23;19901;-85
2023/12/18 11:47:40;;;;;;;;;;;9.00;88.30;;;;;;5112876;23;19908;-87
2023/12/18 11:49:40;;;;;;;;;;;9.00;88.30;;;;;;5112596;23;19905;-86
2023/12/18 11:51:43;;;;;;;;;;;9.00;88.30;;;;;;5087830;23;19904;-87
2023/12/18 11:54:04;;;;;;;;;;;9.00;88.10;;;;;;5135220;23;19935;-86
2023/12/18 11:56:26;;;;;;;;;;;9.00;88.20;;;;;;5116822;23;19987;-85
2023/12/18 11:58:27;;;;;;;;;;;9.00;88.10;;;;;;5113442;23;19939;-86
2023/12/18 12:00:31;;;;;;;;;;;9.00;88.10;;;;;;5086784;23;20277;-87
2023/12/18 12:02:52;;;;;;;;;;;9.00;88.00;;;;;;5138330;23;19908;-87
2023/12/18 12:05:01;;;;;;;;;;;9.00;88.00;;;;;;5114621;23;19900;-86
2023/12/18 12:07:22;;;;;;;;;;;9.00;87.90;;;;;;5116810;23;19935;-86
2023/12/18 12:09:43;;;;;;;;;;;9.00;87.90;;;;;;5117024;23;19908;-86
2023/12/18 12:12:04;;;;;;;;;;;9.00;87.80;;;;;;5139799;23;19935;-86
2023/12/18 12:14:26;;;;;;;;;;;9.00;87.80;;;;;;5116646;23;20076;-86
2023/12/18 12:17:00;;;;;;;;;;;9.00;87.70;;;;;;5116827;23;19932;-85
2023/12/18 12:19:31;;;;;;;;;;;9.00;87.60;;;;;;5138988;23;20342;-88
2023/12/18 12:21:51;;;;;;;;;;;8.90;87.60;;;;;;5142801;23;19912;-85
2023/12/18 12:24:13;;;;;;;;;;;8.90;87.60;;;;;;5124403;23;19932;-86
2023/12/18 12:26:34;;;;;;;;;;;8.90;87.60;;;;;;5165028;22;19919;-89
2023/12/18 12:28:53;;;;;;;;;;;8.90;87.60;;;;;;5164461;23;19927;-87
2023/12/18 12:30:54;;;;;;;;;;;8.90;87.70;;;;;;5137886;23;19896;-88
2023/12/18 12:32:55;;;;;;;;;;;8.90;87.60;;;;;;5165020;22;19943;-88
2023/12/18 12:34:58;;;;;;;;;;;8.90;87.70;;;;;;5163557;22;19927;-88
2023/12/18 12:37:04;;;;;;;;;;;8.90;87.60;;;;;;5136718;23;19919;-87
2023/12/18 12:41:11;;;;;;;;;;;8.90;87.80;;;;;;5187613;22;19963;-87
2023/12/18 12:43:29;;;;;;;;;;;8.90;87.80;;;;;;5135358;23;19965;-87
2023/12/18 12:45:52;;;;;;;;;;;8.90;87.80;;;;;;5179002;22;20210;-85
2023/12/18 12:48:15;;;;;;;;;;;8.90;88.00;;;;;;5169335;23;19927;-85
2023/12/18 12:50:17;;;;;;;;;;;8.90;87.90;;;;;;5173008;23;19910;-87
2023/12/18 12:52:43;;;;;;;;;;;8.90;88.00;;;;;;5148805;23;19912;-86
2023/12/18 12:55:05;;;;;;;;;;;8.90;88.00;;;;;;5147207;23;19904;-85
2023/12/18 12:57:25;;;;;;;;;;;8.90;87.90;;;;;;5144999;23;19911;-86
2023/12/18 12:59:52;;;;;;;;;;;9.00;88.00;;;;;;5144800;23;19966;-87
2023/12/18 13:01:52;;;;;;;;;;;8.90;87.90;;;;;;5118720;23;19923;-85